Time;durP1;ratioP1;P1;durP2;ratioP2;P2;SDS_P1;SDS_P2;PMS_P1;PMS_P2;Temp;Humidity;BMP_temperature;BMP_pressure;BME280_temperature;BME280_humidity;BME280_pressure;Samples;Min_cycle;Max_cycle;Signal;HPM_P1;HPM_P2
2023/07/17 00:00:17;;;;;;;3.23;2.80;;;21.20;99.90;;;;;;5086231;28;20393;-69
2023/07/17 00:02:43;;;;;;;5.60;3.33;;;21.30;99.90;;;;;;5085872;28;20271;-67
2023/07/17 00:05:10;;;;;;;3.97;3.30;;;21.30;99.90;;;;;;5083831;28;20428;-68
2023/07/17 00:07:37;;;;;;;3.33;2.63;;;21.30;99.90;;;;;;5086378;28;20412;-68
2023/07/17 00:10:06;;;;;;;4.60;2.70;;;21.20;99.90;;;;;;5084967;28;20420;-68
2023/07/17 00:12:32;;;;;;;7.33;3.23;;;21.20;99.90;;;;;;5085855;28;20885;-68
2023/07/17 00:14:57;;;;;;;4.03;3.03;;;21.30;99.90;;;;;;5083710;28;20505;-68
2023/07/17 00:17:23;;;;;;;5.97;3.33;;;21.30;99.90;;;;;;5087815;28;20541;-68
2023/07/17 00:19:56;;;;;;;3.27;2.97;;;21.30;99.90;;;;;;5084709;28;20170;-68
2023/07/17 00:22:24;;;;;;;3.10;2.80;;;21.20;99.90;;;;;;5085731;28;20532;-68
2023/07/17 00:24:53;;;;;;;6.10;2.73;;;21.30;99.90;;;;;;5086222;28;20427;-68
2023/07/17 00:27:19;;;;;;;4.90;3.10;;;21.30;99.90;;;;;;5079774;28;20396;-68
2023/07/17 00:29:45;;;;;;;4.57;3.23;;;21.30;99.90;;;;;;5084636;28;20411;-68
2023/07/17 00:32:12;;;;;;;3.80;3.00;;;21.20;99.90;;;;;;5084263;28;20404;-68
2023/07/17 00:34:41;;;;;;;8.80;3.70;;;21.00;99.90;;;;;;5086748;28;20223;-68
2023/07/17 00:37:07;;;;;;;5.67;3.40;;;21.10;99.90;;;;;;5084973;28;20486;-68
2023/07/17 00:39:33;;;;;;;3.60;3.27;;;21.10;99.90;;;;;;5084791;28;20419;-68
2023/07/17 00:42:01;;;;;;;5.13;2.90;;;21.10;99.90;;;;;;5083243;28;20404;-68
2023/07/17 00:44:30;;;;;;;4.03;3.20;;;21.00;99.90;;;;;;5086124;28;20809;-67
2023/07/17 00:46:56;;;;;;;3.57;2.80;;;20.90;99.90;;;;;;5085950;28;20407;-68
2023/07/17 00:49:24;;;;;;;6.00;3.77;;;21.00;99.90;;;;;;5085190;28;20921;-68
2023/07/17 00:51:52;;;;;;;6.97;3.40;;;21.10;99.90;;;;;;5083433;28;20420;-68
2023/07/17 00:54:19;;;;;;;3.97;2.90;;;21.10;99.90;;;;;;5085602;28;20886;-67
2023/07/17 00:56:46;;;;;;;5.23;3.37;;;21.20;99.90;;;;;;5083785;28;20812;-68
2023/07/17 00:59:12;;;;;;;5.97;2.90;;;21.30;99.90;;;;;;5084408;28;20404;-68
2023/07/17 01:01:40;;;;;;;4.43;2.90;;;21.30;99.90;;;;;;5083289;28;20404;-68
2023/07/17 01:04:06;;;;;;;4.50;3.20;;;21.40;99.90;;;;;;5085711;28;20772;-68
2023/07/17 01:06:32;;;;;;;6.60;3.50;;;21.60;99.90;;;;;;5083531;28;20438;-68
2023/07/17 01:08:58;;;;;;;4.90;3.07;;;21.60;99.90;;;;;;5084118;28;20411;-68
2023/07/17 01:11:24;;;;;;;5.53;2.37;;;21.70;99.90;;;;;;5082347;28;20723;-68
2023/07/17 01:13:50;;;;;;;3.47;3.17;;;21.70;99.90;;;;;;5085028;28;20415;-68
2023/07/17 01:16:16;;;;;;;4.83;3.37;;;21.80;99.90;;;;;;5084309;28;20659;-68
2023/07/17 01:18:42;;;;;;;3.27;2.80;;;21.90;99.90;;;;;;5083195;28;20458;-68
2023/07/17 01:21:12;;;;;;;6.20;2.87;;;21.90;99.90;;;;;;5078481;28;20158;-68
2023/07/17 01:23:38;;;;;;;7.97;3.50;;;22.10;99.90;;;;;;5084863;28;20397;-68
2023/07/17 01:26:18;;;;;;;7.93;2.97;;;22.20;99.90;;;;;;5082188;28;20419;-70
2023/07/17 01:28:44;;;;;;;4.23;3.07;;;22.30;99.90;;;;;;5084527;28;20537;-68
2023/07/17 01:31:11;;;;;;;4.67;2.70;;;22.30;99.90;;;;;;5083158;28;20408;-68
2023/07/17 01:33:37;;;;;;;5.90;3.33;;;22.40;99.90;;;;;;5085646;28;20399;-68
2023/07/17 01:36:05;;;;;;;2.60;2.27;;;22.40;99.90;;;;;;5080768;28;20853;-68
2023/07/17 01:38:31;;;;;;;6.10;3.20;;;22.50;99.90;;;;;;5083264;28;20396;-68
2023/07/17 01:40:57;;;;;;;7.77;3.17;;;22.60;99.90;;;;;;5084629;28;20402;-68
2023/07/17 01:43:23;;;;;;;4.40;3.20;;;22.40;99.90;;;;;;5084926;28;20440;-69
2023/07/17 01:45:49;;;;;;;3.87;3.17;;;22.30;99.90;;;;;;5082912;28;20215;-69
2023/07/17 01:48:17;;;;;;;4.00;3.13;;;22.10;99.90;;;;;;5082239;28;20911;-69
2023/07/17 01:50:46;;;;;;;4.90;2.37;;;21.90;99.90;;;;;;5080101;28;20181;-68
2023/07/17 01:53:12;;;;;;;5.43;2.80;;;21.60;99.90;;;;;;5084987;28;20901;-67
2023/07/17 01:55:38;;;;;;;3.60;3.20;;;21.50;99.90;;;;;;5078927;28;20481;-66
2023/07/17 01:58:04;;;;;;;5.20;3.00;;;21.30;99.90;;;;;;5081670;28;20434;-67
2023/07/17 02:00:29;;;;;;;7.30;3.63;;;21.10;99.90;;;;;;5085014;28;20177;-66
2023/07/17 02:02:55;;;;;;;4.80;2.87;;;21.00;99.90;;;;;;5079198;28;20170;-67
2023/07/17 02:05:21;;;;;;;5.37;3.07;;;20.90;99.90;;;;;;5083031;28;20220;-67
2023/07/17 02:07:46;;;;;;;6.30;3.03;;;20.80;99.90;;;;;;5083416;28;20240;-66
2023/07/17 02:10:12;;;;;;;5.07;2.93;;;20.80;99.90;;;;;;5083575;28;20170;-66
2023/07/17 02:12:38;;;;;;;5.00;3.53;;;20.80;99.90;;;;;;5084013;28;20165;-67
2023/07/17 02:15:05;;;;;;;3.97;3.17;;;20.80;99.90;;;;;;5081563;28;20240;-66
2023/07/17 02:17:31;;;;;;;4.47;3.07;;;20.70;99.90;;;;;;5083569;28;20173;-66
2023/07/17 02:19:57;;;;;;;4.20;3.03;;;20.70;99.90;;;;;;5083126;28;20411;-66
2023/07/17 02:22:22;;;;;;;3.50;2.73;;;20.80;99.90;;;;;;5084861;28;20172;-65
2023/07/17 02:24:48;;;;;;;4.20;3.20;;;20.90;99.90;;;;;;5075027;28;20578;-66
2023/07/17 02:27:13;;;;;;;4.60;2.83;;;21.00;99.90;;;;;;5082517;28;20203;-66
2023/07/17 02:29:39;;;;;;;5.80;3.40;;;21.10;99.90;;;;;;5081766;28;20196;-67
2023/07/17 02:32:05;;;;;;;7.00;4.03;;;20.90;99.90;;;;;;5084451;28;20256;-66
2023/07/17 02:34:31;;;;;;;6.00;3.20;;;20.90;99.90;;;;;;5082346;28;20197;-66
2023/07/17 02:36:56;;;;;;;5.03;3.90;;;20.90;99.90;;;;;;5084094;28;20403;-66
2023/07/17 02:39:22;;;;;;;4.60;2.90;;;20.90;99.90;;;;;;5081536;28;20193;-66
2023/07/17 02:41:47;;;;;;;5.93;3.13;;;20.90;99.90;;;;;;5083272;28;20205;-67
2023/07/17 02:44:13;;;;;;;5.30;3.30;;;20.80;99.90;;;;;;5083421;28;20181;-66
2023/07/17 02:46:39;;;;;;;8.27;3.47;;;20.80;99.90;;;;;;5082022;28;20679;-66
2023/07/17 02:49:06;;;;;;;4.10;2.87;;;20.90;99.90;;;;;;5079156;28;20193;-66
2023/07/17 02:51:32;;;;;;;5.83;3.17;;;20.90;99.90;;;;;;5085136;28;20604;-66
2023/07/17 02:53:58;;;;;;;6.30;3.40;;;20.90;99.90;;;;;;5084160;28;20451;-66
2023/07/17 02:56:24;;;;;;;3.50;3.20;;;20.90;99.90;;;;;;5080574;28;20565;-65
2023/07/17 02:58:53;;;;;;;4.07;2.67;;;20.90;99.90;;;;;;5086647;28;20228;-66
2023/07/17 03:01:20;;;;;;;5.90;3.20;;;20.90;99.90;;;;;;5086245;28;20187;-66
2023/07/17 03:03:46;;;;;;;4.30;3.00;;;20.90;99.90;;;;;;5088071;28;20490;-66
2023/07/17 03:06:11;;;;;;;6.03;3.57;;;21.10;99.90;;;;;;5085754;28;20454;-66
2023/07/17 03:08:37;;;;;;;3.83;2.47;;;21.10;99.90;;;;;;5086774;28;20169;-65
2023/07/17 03:11:06;;;;;;;3.63;3.10;;;21.00;99.90;;;;;;5084634;28;20636;-66
2023/07/17 03:13:31;;;;;;;3.93;3.03;;;20.90;99.90;;;;;;5087677;28;20181;-66
2023/07/17 03:15:58;;;;;;;3.70;3.00;;;21.00;99.90;;;;;;5087204;28;20787;-67
2023/07/17 03:18:25;;;;;;;4.00;2.60;;;21.00;99.90;;;;;;5086801;28;20165;-67
2023/07/17 03:20:51;;;;;;;3.40;2.93;;;20.90;99.90;;;;;;5085052;28;20849;-66
2023/07/17 03:23:17;;;;;;;4.00;3.33;;;20.90;99.90;;;;;;5087681;28;20407;-66
2023/07/17 03:25:42;;;;;;;5.47;3.67;;;20.80;99.90;;;;;;5082263;28;20197;-67
2023/07/17 03:28:09;;;;;;;3.90;3.50;;;20.80;99.90;;;;;;5084710;28;20170;-68
2023/07/17 03:30:34;;;;;;;6.53;3.73;;;20.80;99.90;;;;;;5087498;28;20169;-67
2023/07/17 03:33:00;;;;;;;4.23;3.10;;;20.70;99.90;;;;;;5085810;28;21120;-67
2023/07/17 03:35:25;;;;;;;5.30;3.83;;;20.70;99.90;;;;;;5084748;28;20252;-67
2023/07/17 03:37:51;;;;;;;5.00;3.40;;;20.70;99.90;;;;;;5086234;28;20166;-66
2023/07/17 03:40:17;;;;;;;4.20;2.77;;;20.60;99.90;;;;;;5085770;28;20166;-67
2023/07/17 03:42:42;;;;;;;3.50;2.93;;;20.60;99.90;;;;;;5086629;28;20192;-67
2023/07/17 03:45:08;;;;;;;5.60;3.10;;;20.60;99.90;;;;;;5086223;28;20208;-67
2023/07/17 03:47:34;;;;;;;5.27;3.23;;;20.70;99.90;;;;;;5083231;28;20646;-67
2023/07/17 03:49:59;;;;;;;4.50;3.00;;;20.70;99.90;;;;;;5087280;28;20759;-67
2023/07/17 03:52:25;;;;;;;4.00;3.10;;;20.80;99.90;;;;;;5083686;28;20174;-67
2023/07/17 03:54:50;;;;;;;2.80;2.60;;;20.70;99.90;;;;;;5083040;28;20672;-67
2023/07/17 03:57:16;;;;;;;5.13;3.43;;;20.70;99.90;;;;;;5082428;28;20223;-68
2023/07/17 03:59:53;;;;;;;4.30;3.37;;;20.70;99.90;;;;;;5084090;28;20172;-67
2023/07/17 04:02:18;;;;;;;4.30;2.77;;;20.70;99.90;;;;;;5081284;28;20159;-69
2023/07/17 04:04:44;;;;;;;6.03;3.77;;;20.60;99.90;;;;;;5086829;28;20433;-67
2023/07/17 04:07:11;;;;;;;5.93;3.20;;;20.60;99.90;;;;;;5085084;28;20185;-67
2023/07/17 04:09:36;;;;;;;6.77;3.67;;;20.60;99.90;;;;;;5085726;28;20166;-67
2023/07/17 04:12:03;;;;;;;6.30;3.30;;;20.60;99.90;;;;;;5083490;28;20407;-66
2023/07/17 04:14:30;;;;;;;4.53;3.50;;;20.70;99.90;;;;;;5085625;28;20206;-67
2023/07/17 04:16:56;;;;;;;4.37;3.23;;;20.60;99.90;;;;;;5086087;28;20432;-68
2023/07/17 04:19:21;;;;;;;7.80;3.07;;;20.60;99.90;;;;;;5086158;28;20436;-67
2023/07/17 04:21:47;;;;;;;6.43;3.80;;;20.60;99.90;;;;;;5082059;28;20193;-67
2023/07/17 04:24:12;;;;;;;4.77;3.27;;;20.50;99.90;;;;;;5082642;28;20190;-67
2023/07/17 04:26:38;;;;;;;7.00;4.10;;;20.50;99.90;;;;;;5084253;28;20248;-68
2023/07/17 04:29:03;;;;;;;5.53;3.30;;;20.40;99.90;;;;;;5083181;28;20162;-67
2023/07/17 04:31:29;;;;;;;6.60;3.50;;;20.40;99.90;;;;;;5084724;28;20159;-66
2023/07/17 04:33:55;;;;;;;6.80;3.57;;;20.30;99.90;;;;;;5085445;28;20189;-68
2023/07/17 04:36:20;;;;;;;4.23;3.80;;;20.20;99.90;;;;;;5084830;28;20185;-67
2023/07/17 04:38:46;;;;;;;6.77;4.20;;;20.20;99.90;;;;;;5083813;28;20533;-67
2023/07/17 04:41:12;;;;;;;7.20;3.73;;;20.30;99.90;;;;;;5083015;28;20177;-68
2023/07/17 04:43:37;;;;;;;3.73;2.90;;;20.30;99.90;;;;;;5085479;28;20249;-67
2023/07/17 04:46:03;;;;;;;4.77;3.63;;;20.30;99.90;;;;;;5080293;28;20231;-67
2023/07/17 04:48:28;;;;;;;5.23;3.00;;;20.40;99.90;;;;;;5084477;28;20213;-68
2023/07/17 04:50:54;;;;;;;5.50;3.10;;;20.60;99.90;;;;;;5083259;28;20166;-67
2023/07/17 04:53:20;;;;;;;6.20;3.40;;;20.70;99.90;;;;;;5083868;28;20169;-67
2023/07/17 04:55:45;;;;;;;4.63;3.33;;;20.70;99.90;;;;;;5083071;28;20713;-67
2023/07/17 04:58:11;;;;;;;5.30;3.57;;;20.80;99.90;;;;;;5086329;28;20161;-68
2023/07/17 05:00:36;;;;;;;4.00;3.40;;;20.80;99.90;;;;;;5081799;28;20162;-67
2023/07/17 05:03:02;;;;;;;4.27;3.23;;;20.90;99.90;;;;;;5085199;28;20166;-67
2023/07/17 05:05:28;;;;;;;5.10;2.83;;;21.00;99.90;;;;;;5083319;28;20189;-67
2023/07/17 05:07:54;;;;;;;5.90;4.00;;;21.20;99.90;;;;;;5085692;28;20173;-69
2023/07/17 05:10:19;;;;;;;6.40;3.20;;;21.30;99.90;;;;;;5082783;28;20404;-67
2023/07/17 05:12:45;;;;;;;4.90;3.70;;;21.40;99.90;;;;;;5084199;28;20190;-65
2023/07/17 05:15:11;;;;;;;3.10;2.80;;;21.60;99.90;;;;;;5084555;28;20293;-68
2023/07/17 05:17:37;;;;;;;3.87;3.30;;;21.70;99.90;;;;;;5082169;28;20162;-67
2023/07/17 05:20:05;;;;;;;4.57;3.20;;;21.80;99.90;;;;;;5083505;28;20905;-67
2023/07/17 05:22:31;;;;;;;5.13;3.27;;;22.00;99.90;;;;;;5083246;28;20574;-67
2023/07/17 05:24:57;;;;;;;4.40;3.10;;;22.10;99.90;;;;;;5084879;28;20941;-67
2023/07/17 05:27:23;;;;;;;4.07;3.00;;;22.20;99.90;;;;;;5082045;28;20415;-67
2023/07/17 05:29:49;;;;;;;4.60;3.17;;;22.30;99.90;;;;;;5082096;28;20498;-67
2023/07/17 05:32:14;;;;;;;9.90;2.83;;;22.40;99.90;;;;;;5081764;28;20201;-69
2023/07/17 05:34:40;;;;;;;4.80;3.37;;;22.50;99.90;;;;;;5084954;28;20189;-67
2023/07/17 05:37:05;;;;;;;6.17;3.60;;;22.60;99.90;;;;;;5080505;28;20634;-67
2023/07/17 05:39:31;;;;;;;4.20;3.40;;;22.70;99.90;;;;;;5083418;28;20655;-66
2023/07/17 05:41:56;;;;;;;7.60;4.03;;;22.60;99.90;;;;;;5084554;28;20226;-67
2023/07/17 05:44:22;;;;;;;6.03;3.83;;;22.60;99.90;;;;;;5082737;28;20276;-67
2023/07/17 05:46:47;;;;;;;4.70;3.83;;;22.50;99.90;;;;;;5082007;28;20611;-68
2023/07/17 05:49:13;;;;;;;5.63;4.50;;;22.50;99.90;;;;;;5082528;28;20173;-66
2023/07/17 05:51:39;;;;;;;7.50;3.90;;;22.40;99.90;;;;;;5084063;28;20243;-66
2023/07/17 05:54:05;;;;;;;5.63;4.60;;;22.50;99.90;;;;;;5083704;28;20205;-66
2023/07/17 05:56:31;;;;;;;6.00;4.20;;;22.40;99.90;;;;;;5081688;28;20193;-67
2023/07/17 05:58:56;;;;;;;5.70;4.10;;;22.40;99.90;;;;;;5081235;28;20411;-67
2023/07/17 06:01:22;;;;;;;6.70;5.03;;;22.30;99.90;;;;;;5081446;28;20532;-67
2023/07/17 06:03:47;;;;;;;4.73;4.17;;;22.30;99.90;;;;;;5079714;28;20166;-67
2023/07/17 06:06:13;;;;;;;7.10;5.20;;;22.30;99.90;;;;;;5082651;28;20169;-69
2023/07/17 06:08:38;;;;;;;6.73;4.90;;;22.30;99.90;;;;;;5081390;28;20188;-67
2023/07/17 06:11:04;;;;;;;6.10;4.17;;;22.50;99.90;;;;;;5083370;28;20254;-68
2023/07/17 06:13:30;;;;;;;6.97;4.03;;;22.60;99.90;;;;;;5083788;28;20173;-67
2023/07/17 06:15:55;;;;;;;6.53;4.60;;;22.60;99.90;;;;;;5082940;28;20631;-68
2023/07/17 06:18:21;;;;;;;5.67;4.27;;;22.80;99.90;;;;;;5084054;28;20196;-68
2023/07/17 06:20:46;;;;;;;5.10;3.60;;;22.80;99.90;;;;;;5080824;28;20162;-67
2023/07/17 06:23:12;;;;;;;4.97;3.80;;;22.90;99.90;;;;;;5081690;28;20162;-68
2023/07/17 06:25:38;;;;;;;5.83;3.50;;;22.80;99.90;;;;;;5082033;28;20552;-69
2023/07/17 06:28:04;;;;;;;4.73;3.80;;;22.90;99.90;;;;;;5084575;28;20164;-68
2023/07/17 06:30:31;;;;;;;6.63;4.07;;;22.70;99.90;;;;;;5081888;28;20403;-68
2023/07/17 06:32:57;;;;;;;6.67;3.70;;;22.80;99.90;;;;;;5086733;28;20440;-68
2023/07/17 06:35:23;;;;;;;4.70;3.40;;;22.90;99.90;;;;;;5088094;28;20482;-68
2023/07/17 06:37:48;;;;;;;5.43;2.90;;;23.00;99.90;;;;;;5082018;28;20584;-68
2023/07/17 06:40:14;;;;;;;3.13;2.80;;;23.00;99.90;;;;;;5086497;28;20189;-68
2023/07/17 06:42:39;;;;;;;8.40;3.80;;;23.20;99.90;;;;;;5085669;28;20162;-68
2023/07/17 06:45:06;;;;;;;7.37;3.47;;;23.10;99.90;;;;;;5085763;28;20190;-69
2023/07/17 06:47:32;;;;;;;8.53;3.40;;;23.10;99.90;;;;;;5085402;28;20540;-68
2023/07/17 06:49:58;;;;;;;4.87;3.17;;;23.10;99.90;;;;;;5084451;28;20407;-68
2023/07/17 06:52:24;;;;;;;6.27;3.40;;;23.20;99.90;;;;;;5084939;28;20223;-68
2023/07/17 06:54:49;;;;;;;5.43;3.27;;;23.60;99.90;;;;;;5084309;28;20452;-68
2023/07/17 06:57:15;;;;;;;4.10;3.03;;;23.80;99.90;;;;;;5085463;28;20162;-68
2023/07/17 06:59:41;;;;;;;6.53;3.60;;;23.90;99.90;;;;;;5084696;28;20187;-68
2023/07/17 07:02:06;;;;;;;6.00;3.50;;;23.70;99.90;;;;;;5085050;28;20616;-68
2023/07/17 07:04:32;;;;;;;5.80;3.60;;;23.60;99.90;;;;;;5085937;28;20186;-68
2023/07/17 07:06:57;;;;;;;4.90;3.37;;;23.70;99.90;;;;;;5087673;28;20169;-72
2023/07/17 07:09:23;;;;;;;6.83;3.80;;;23.90;99.90;;;;;;5081104;28;20170;-68
2023/07/17 07:11:48;;;;;;;6.20;4.10;;;24.00;99.90;;;;;;5085747;28;20177;-68
2023/07/17 07:14:14;;;;;;;4.07;3.63;;;24.00;99.90;;;;;;5084101;28;20209;-68
2023/07/17 07:16:40;;;;;;;5.90;3.77;;;24.00;99.90;;;;;;5085988;28;20224;-68
2023/07/17 07:19:05;;;;;;;6.40;4.20;;;24.10;99.90;;;;;;5085177;28;20215;-68
2023/07/17 07:21:31;;;;;;;4.40;3.93;;;24.40;99.90;;;;;;5084994;28;20173;-69
2023/07/17 07:23:56;;;;;;;8.43;5.07;;;24.40;99.90;;;;;;5087420;28;20189;-68
2023/07/17 07:26:22;;;;;;;6.17;4.30;;;24.40;98.00;;;;;;5082695;28;20257;-68
2023/07/17 07:28:48;;;;;;;6.70;4.90;;;24.10;98.50;;;;;;5086465;28;20169;-69
2023/07/17 07:31:13;;;;;;;7.13;4.23;;;24.10;97.90;;;;;;5084260;28;20178;-68
2023/07/17 07:33:39;;;;;;;7.40;4.87;;;24.20;98.00;;;;;;5086408;28;20254;-68
2023/07/17 07:36:05;;;;;;;7.40;3.87;;;24.00;97.40;;;;;;5086331;28;20185;-67
2023/07/17 07:38:30;;;;;;;5.90;4.70;;;24.00;97.80;;;;;;5086180;28;20166;-67
2023/07/17 07:40:56;;;;;;;8.23;5.17;;;24.20;95.90;;;;;;5084195;28;20537;-67
2023/07/17 07:43:21;;;;;;;6.10;4.50;;;24.20;96.20;;;;;;5084512;28;20640;-67
2023/07/17 07:45:47;;;;;;;6.50;4.37;;;24.30;96.00;;;;;;5086784;28;20274;-67
2023/07/17 07:48:13;;;;;;;5.40;4.40;;;24.30;96.20;;;;;;5082034;28;20173;-67
2023/07/17 07:50:38;;;;;;;6.20;5.00;;;24.50;96.30;;;;;;5085182;28;20232;-67
2023/07/17 07:53:04;;;;;;;7.90;4.93;;;24.60;94.60;;;;;;5084069;28;20577;-68
2023/07/17 07:55:29;;;;;;;7.57;5.23;;;24.50;94.50;;;;;;5086568;28;20220;-67
2023/07/17 07:57:55;;;;;;;7.03;5.50;;;24.40;93.90;;;;;;5085563;28;20169;-68
2023/07/17 08:00:20;;;;;;;6.07;5.13;;;24.20;93.90;;;;;;5086185;28;20162;-68
2023/07/17 08:02:46;;;;;;;6.30;5.53;;;24.50;94.00;;;;;;5084392;28;20165;-67
2023/07/17 08:05:11;;;;;;;5.77;4.70;;;24.50;94.40;;;;;;5084361;28;20752;-67
2023/07/17 08:07:38;;;;;;;6.53;4.83;;;24.70;95.20;;;;;;5084070;28;20220;-68
2023/07/17 08:10:04;;;;;;;5.07;4.57;;;24.60;95.40;;;;;;5085323;28;20603;-67
2023/07/17 08:12:30;;;;;;;7.53;5.97;;;24.80;94.90;;;;;;5086137;28;20436;-67
2023/07/17 08:14:56;;;;;;;6.90;4.43;;;24.70;94.60;;;;;;5085007;28;20833;-68
2023/07/17 08:17:21;;;;;;;7.57;4.90;;;24.80;95.00;;;;;;5082782;28;20393;-68
2023/07/17 08:19:47;;;;;;;7.50;4.73;;;24.60;94.30;;;;;;5087455;28;20675;-68
2023/07/17 08:22:12;;;;;;;7.20;4.90;;;24.70;93.80;;;;;;5084627;28;20237;-68
2023/07/17 08:24:38;;;;;;;6.67;4.80;;;24.70;92.90;;;;;;5086086;28;20694;-67
2023/07/17 08:27:04;;;;;;;6.40;5.17;;;24.90;92.00;;;;;;5083273;28;20198;-68
2023/07/17 08:29:29;;;;;;;6.17;4.57;;;24.90;91.80;;;;;;5086387;28;20663;-68
2023/07/17 08:31:55;;;;;;;5.90;4.37;;;24.80;91.40;;;;;;5084342;28;20278;-69
2023/07/17 08:34:23;;;;;;;7.20;4.90;;;24.60;91.10;;;;;;5082934;28;20185;-69
2023/07/17 08:36:49;;;;;;;6.10;4.60;;;24.80;91.30;;;;;;5086275;28;20166;-67
2023/07/17 08:39:14;;;;;;;6.50;4.97;;;25.10;91.40;;;;;;5084357;28;20406;-67
2023/07/17 08:41:42;;;;;;;7.37;5.07;;;25.30;88.70;;;;;;5082877;28;20401;-69
2023/07/17 08:44:08;;;;;;;5.87;3.90;;;25.40;90.10;;;;;;5078711;28;20663;-68
2023/07/17 08:46:34;;;;;;;10.90;5.13;;;25.30;84.50;;;;;;5084243;28;20419;-69
2023/07/17 08:49:01;;;;;;;5.93;4.30;;;25.40;85.90;;;;;;5085176;28;20412;-66
2023/07/17 08:51:28;;;;;;;7.83;4.20;;;25.50;81.60;;;;;;5085584;28;20530;-67
2023/07/17 08:53:56;;;;;;;7.13;4.03;;;25.70;80.60;;;;;;5082325;28;20481;-69
2023/07/17 08:56:22;;;;;;;4.23;3.83;;;25.80;79.60;;;;;;5082637;28;20432;-69
2023/07/17 08:58:50;;;;;;;6.20;4.83;;;26.00;81.00;;;;;;5082703;28;20428;-70
2023/07/17 09:01:17;;;;;;;5.60;4.53;;;26.40;79.40;;;;;;5083320;28;20913;-66
2023/07/17 09:03:43;;;;;;;6.97;4.97;;;26.50;80.50;;;;;;5084381;28;20404;-67
2023/07/17 09:06:13;;;;;;;5.63;4.47;;;26.30;80.80;;;;;;5080092;28;20768;-67
2023/07/17 09:08:38;;;;;;;5.77;4.87;;;26.00;81.10;;;;;;5086170;28;20165;-68
2023/07/17 09:11:06;;;;;;;6.00;5.33;;;26.10;80.70;;;;;;5082306;28;20415;-67
2023/07/17 09:13:39;;;;;;;6.90;4.50;;;26.10;82.70;;;;;;5084571;28;20174;-67
2023/07/17 09:16:12;;;;;;;7.13;4.67;;;26.50;83.50;;;;;;5083344;28;20479;-67
2023/07/17 09:18:37;;;;;;;4.60;4.10;;;26.90;79.60;;;;;;5085690;28;20435;-67
2023/07/17 09:21:03;;;;;;;7.63;4.83;;;27.20;80.20;;;;;;5082420;28;20430;-67
2023/07/17 09:23:38;;;;;;;5.47;4.90;;;27.20;81.10;;;;;;5085313;28;20158;-67
2023/07/17 09:26:03;;;;;;;5.40;4.53;;;27.30;80.80;;;;;;5081127;28;20178;-67
2023/07/17 09:28:29;;;;;;;5.10;4.00;;;27.30;77.10;;;;;;5084567;28;20508;-68
2023/07/17 09:31:01;;;;;;;6.43;4.67;;;27.60;78.10;;;;;;5082397;28;20292;-67
2023/07/17 09:33:27;;;;;;;7.40;5.00;;;27.10;78.80;;;;;;5085083;28;20647;-67
2023/07/17 09:35:56;;;;;;;5.43;4.63;;;26.70;79.50;;;;;;5081846;28;20450;-67
2023/07/17 09:38:28;;;;;;;6.03;4.83;;;26.70;80.10;;;;;;5082942;28;20184;-67
2023/07/17 09:40:53;;;;;;;6.57;4.70;;;26.60;79.10;;;;;;5083092;28;20462;-66
2023/07/17 09:43:32;;;;;;;7.70;4.80;;;26.70;80.90;;;;;;5083452;28;20914;-69
2023/07/17 09:45:59;;;;;;;7.40;4.70;;;26.80;79.60;;;;;;5081131;28;20168;-67
2023/07/17 09:48:27;;;;;;;9.80;5.00;;;26.60;80.00;;;;;;5081396;28;20457;-68
2023/07/17 09:50:57;;;;;;;5.57;4.10;;;26.70;81.00;;;;;;5084385;28;20412;-68
2023/07/17 09:53:24;;;;;;;5.23;4.43;;;26.90;80.60;;;;;;5082630;28;20399;-69
2023/07/17 09:55:52;;;;;;;6.90;5.27;;;27.10;79.30;;;;;;5082381;28;20450;-68
2023/07/17 09:58:18;;;;;;;5.73;4.53;;;27.40;78.50;;;;;;5083431;28;20400;-67
2023/07/17 10:00:47;;;;;;;4.57;4.17;;;27.50;76.90;;;;;;5081520;28;20417;-68
2023/07/17 10:03:17;;;;;;;5.40;4.33;;;27.50;77.10;;;;;;5083052;28;20396;-68
2023/07/17 10:05:43;;;;;;;7.07;4.80;;;27.70;76.80;;;;;;5082780;28;20428;-68
2023/07/17 10:08:10;;;;;;;4.77;4.27;;;27.90;76.60;;;;;;5081883;28;20400;-67
2023/07/17 10:10:36;;;;;;;5.63;4.43;;;28.00;75.30;;;;;;5077066;28;20766;-67
2023/07/17 10:13:02;;;;;;;4.73;4.20;;;28.40;76.20;;;;;;5083049;28;20416;-67
2023/07/17 10:15:29;;;;;;;7.87;4.90;;;28.40;74.30;;;;;;5083443;28;20454;-67
2023/07/17 10:17:57;;;;;;;6.47;5.30;;;28.60;74.10;;;;;;5080973;28;20675;-67
2023/07/17 10:20:24;;;;;;;6.60;4.87;;;28.50;75.90;;;;;;5081891;28;20431;-67
2023/07/17 10:22:50;;;;;;;6.53;4.37;;;28.70;72.50;;;;;;5082687;28;20428;-67
2023/07/17 10:25:18;;;;;;;5.10;4.40;;;28.80;72.60;;;;;;5080201;28;20467;-68
2023/07/17 10:27:57;;;;;;;8.13;5.10;;;28.70;71.60;;;;;;5083502;28;20169;-67
2023/07/17 10:30:25;;;;;;;5.10;4.60;;;28.40;72.20;;;;;;5081398;28;20453;-67
2023/07/17 10:33:05;;;;;;;5.60;4.67;;;28.40;71.20;;;;;;5077058;28;20887;-67
2023/07/17 10:35:56;;;;;;;5.90;5.33;;;27.90;72.60;;;;;;5077398;28;20444;-67
2023/07/17 10:38:24;;;;;;;8.23;4.93;;;27.80;74.00;;;;;;5080151;28;20392;-68
2023/07/17 10:41:04;;;;;;;5.37;4.77;;;27.90;72.60;;;;;;5081969;28;20407;-68
2023/07/17 10:43:29;;;;;;;5.53;4.83;;;27.90;70.70;;;;;;5082044;28;20389;-67
2023/07/17 10:45:55;;;;;;;5.50;4.97;;;27.70;73.30;;;;;;5083868;28;20423;-67
2023/07/17 10:48:25;;;;;;;5.63;4.53;;;28.00;73.70;;;;;;5082782;28;20178;-68
2023/07/17 10:50:53;;;;;;;5.93;5.00;;;28.30;72.50;;;;;;5082288;28;20172;-68
2023/07/17 10:53:19;;;;;;;6.13;5.50;;;27.70;70.90;;;;;;5082113;28;20400;-68
2023/07/17 10:55:49;;;;;;;5.50;4.47;;;27.70;74.20;;;;;;5083323;28;20458;-72
2023/07/17 10:58:16;;;;;;;6.93;5.50;;;27.70;72.10;;;;;;5076749;28;20411;-68
2023/07/17 11:00:43;;;;;;;5.63;4.60;;;27.60;74.70;;;;;;5083095;28;20404;-68
2023/07/17 11:03:10;;;;;;;5.90;4.87;;;27.70;75.60;;;;;;5082983;28;20411;-67
2023/07/17 11:05:43;;;;;;;6.67;5.00;;;27.60;73.60;;;;;;5081028;28;20420;-68
2023/07/17 11:08:09;;;;;;;7.47;5.30;;;27.50;75.50;;;;;;5077548;28;20752;-67
2023/07/17 11:10:36;;;;;;;5.30;4.63;;;27.40;75.80;;;;;;5080917;28;20407;-68
2023/07/17 11:13:03;;;;;;;7.27;4.63;;;27.70;77.50;;;;;;5081623;28;20408;-68
2023/07/17 11:15:31;;;;;;;6.40;4.73;;;27.50;72.20;;;;;;5083319;28;20825;-69
2023/07/17 11:17:58;;;;;;;7.70;5.10;;;27.50;74.30;;;;;;5081966;28;20400;-68
2023/07/17 11:20:24;;;;;;;5.37;4.97;;;27.70;72.00;;;;;;5085802;28;20921;-68
2023/07/17 11:22:50;;;;;;;5.10;4.60;;;27.70;71.90;;;;;;5084240;28;20475;-67
2023/07/17 11:25:16;;;;;;;6.10;4.73;;;28.00;72.10;;;;;;5084558;28;20196;-68
2023/07/17 11:27:42;;;;;;;6.30;5.07;;;28.30;72.30;;;;;;5086967;28;20173;-68
2023/07/17 11:30:40;;;;;;;9.00;5.40;;;28.80;69.70;;;;;;5084294;28;20785;-68
2023/07/17 11:33:07;;;;;;;5.27;4.63;;;28.90;69.60;;;;;;5048234;28;20419;-68
2023/07/17 11:35:47;;;;;;;5.93;3.90;;;29.00;71.40;;;;;;5086966;28;20476;-67
2023/07/17 11:38:15;;;;;;;5.10;4.20;;;28.80;68.80;;;;;;5081039;28;20407;-67
2023/07/17 11:40:58;;;;;;;5.87;5.13;;;28.90;69.80;;;;;;5086775;28;20399;-68
2023/07/17 11:43:25;;;;;;;5.10;4.30;;;30.30;66.50;;;;;;5081121;28;20427;-68
2023/07/17 11:45:54;;;;;;;5.10;4.67;;;30.90;64.10;;;;;;5079758;28;20485;-68
2023/07/17 11:48:20;;;;;;;5.07;4.57;;;30.50;64.60;;;;;;5085943;28;20831;-67
2023/07/17 11:50:45;;;;;;;5.07;4.57;;;30.50;65.40;;;;;;5084776;28;20440;-67
2023/07/17 11:53:12;;;;;;;6.20;4.10;;;30.50;64.50;;;;;;5087221;28;20170;-68
2023/07/17 11:55:39;;;;;;;6.80;5.13;;;31.30;62.40;;;;;;5084360;28;20194;-68
2023/07/17 11:58:16;;;;;;;5.90;4.60;;;31.70;63.30;;;;;;5085294;28;20411;-68
2023/07/17 12:00:43;;;;;;;6.23;4.70;;;30.70;61.90;;;;;;5084862;28;20411;-67
2023/07/17 12:03:09;;;;;;;5.33;4.70;;;29.70;64.00;;;;;;5084514;28;20899;-68
2023/07/17 12:05:35;;;;;;;7.03;5.00;;;29.20;66.10;;;;;;5086597;28;20431;-67
2023/07/17 12:08:01;;;;;;;6.57;4.70;;;28.80;68.80;;;;;;5084529;28;20410;-68
2023/07/17 12:10:27;;;;;;;5.07;4.57;;;29.00;68.20;;;;;;5083795;28;20407;-68
2023/07/17 12:12:52;;;;;;;5.03;4.47;;;29.10;67.30;;;;;;5083179;28;20177;-68
2023/07/17 12:15:18;;;;;;;6.67;4.80;;;29.10;66.50;;;;;;5079103;22;20300;-68
2023/07/17 12:17:43;;;;;;;6.10;5.33;;;28.80;68.00;;;;;;5034610;28;20164;-68
2023/07/17 12:20:10;;;;;;;5.27;4.20;;;29.20;68.90;;;;;;5034666;28;20160;-69
2023/07/17 12:22:35;;;;;;;4.87;4.37;;;30.10;65.70;;;;;;5033112;28;20546;-69
2023/07/17 12:25:01;;;;;;;8.73;5.23;;;30.10;66.40;;;;;;5034321;28;20410;-68
2023/07/17 12:27:26;;;;;;;5.43;4.83;;;30.40;66.10;;;;;;5031511;28;20258;-68
2023/07/17 12:29:52;;;;;;;8.20;5.43;;;30.70;63.20;;;;;;5034381;28;20164;-68
2023/07/17 12:32:17;;;;;;;5.83;4.80;;;31.20;64.00;;;;;;5034677;28;20170;-68
2023/07/17 12:34:43;;;;;;;8.30;4.83;;;30.70;63.40;;;;;;5034168;28;20199;-68
2023/07/17 12:37:08;;;;;;;6.90;4.77;;;30.20;65.60;;;;;;5034253;28;20221;-68
2023/07/17 12:39:34;;;;;;;6.90;5.00;;;29.30;64.90;;;;;;5034223;28;20341;-68
2023/07/17 12:42:00;;;;;;;5.63;4.87;;;29.20;65.80;;;;;;5033618;28;20254;-68
2023/07/17 12:44:25;;;;;;;5.63;4.27;;;29.30;65.20;;;;;;5034346;28;20230;-68